MOOI WEER BOXTEL

Weerstation in Boxtel

Actuele weerinformatie en voorspellingen


Onweer radar Meer informatie blitzortung!


Regen radar Meer informatie rain snow radar


Meer informatie

Template documentation
and downloads

Weblog Hans on Experience

Profiel Hans Mestrum



Het weer levert geen direct gevaar op.    Er zijn geen waarschuwingen afgegeven.

METAR rapporten vliegvelden

   
EHEH - Eindhoven
Gewijzigd: 20-04-2018 18:25
Bewolking  
Bewolking  
   Wind: NW 18.5 km/h
Wind: NW 18.5 km/h
Temperatuur: 25°C
Dauwpunt: 10°C
Vochtigheid: 39%
Barometer: 1021 hPa
Bewolking: Bewolking
Zicht: meer dan 10 km
Bewolking: Bewolking 30000 ft
EHEH 201625Z AUTO 31010KT 250V360 9999 OVC300 25/10 Q1021 BLU 31007KT CAVOK
EHVK - Volkel
Gewijzigd: 20-04-2018 18:25
Grotendeels bewolkt  
Grotendeels bewolkt  
   Wind: WNW 14.8 km/h
Wind: WNW 14.8 km/h
Temperatuur: 25°C
Dauwpunt: 11°C
Vochtigheid: 42%
Barometer: 1021 hPa
Bewolking: Grotendeels bewolkt
Zicht: meer dan 10 km
Bewolking: Grotendeels bewolkt 31000 ft
EHVK 201625Z AUTO 29008KT 250V360 9999 BKN310 25/11 Q1021 BLU
EBAW - Antwerpen
Gewijzigd: 20-04-2018 18:20
Helder  
Helder  
   Wind: NW 20.4 km/h
Wind: NW 20.4 km/h
Temperatuur: 24°C
Dauwpunt: 6°C
Vochtigheid: 31%
Barometer: 1022 hPa
Zicht: meer dan 10 km
Bewolking: Helder
EBAW 201620Z 31011KT CAVOK 24/06 Q1022 NOSIG
EHBK - Maastricht
Gewijzigd: 20-04-2018 18:25
Helder  
Helder  
   Wind: WZW 7.4 km/h
Wind: WZW 7.4 km/h
Temperatuur: 27°C
Dauwpunt: 12°C
Vochtigheid: 39%
Barometer: 1021 hPa
Bewolking: Helder
Zicht: meer dan 10 km
Bewolking: Helder
EHBK 201625Z AUTO 25004KT 200V300 9999 NCD 27/12 Q1021 NOSIG
ELLX - Luxemburg
Gewijzigd: 20-04-2018 18:20
Helder  
Helder  
   Wind: ZZO 11.1 km/h
Wind: ZZO 11.1 km/h
Temperatuur: 26°C
Dauwpunt: 7°C
Vochtigheid: 30%
Barometer: 1022 hPa
Zicht: meer dan 10 km
Bewolking: Helder
ELLX 201620Z 16006KT 130V190 CAVOK 26/07 Q1022 NOSIG
 

Script ontwikkeld door  Saratoga-weather.org Aangepast voor de template door  Weerstation Leuven

U vindt ons ook hier:

Het Weer Aktueel

UK Metoffice

European Weather Network

Weather Underground

AWEKAS

Citizen Weather Observer Program (CWOP)

HAMweather, WeatherForYou, PWS Weather

Apparatuur in gebruik:

Weerstation
Davis Vue ISS

Weerprogramma
Meteobridge

Weercomputer
Asus WL -330N3G

Webleverancier
Weerhuisje.nl

Davis Vue ISS

Meteobridge

Asus WL -330N3G

Weerhuisje.nl